sensor_id;sensor_type;location;lat;lon;timestamp;P1;durP1;ratioP1;P2;durP2;ratioP2
18217;SDS011;9234;49.344;11.120;2023-02-15T00:01:16;15.33;;;10.17;;
18217;SDS011;9234;49.344;11.120;2023-02-15T00:03:44;15.13;;;9.70;;
18217;SDS011;9234;49.344;11.120;2023-02-15T00:06:14;17.63;;;9.93;;
18217;SDS011;9234;49.344;11.120;2023-02-15T00:08:45;16.47;;;9.53;;
18217;SDS011;9234;49.344;11.120;2023-02-15T00:11:14;14.40;;;9.47;;
18217;SDS011;9234;49.344;11.120;2023-02-15T00:14:08;14.50;;;9.40;;
18217;SDS011;9234;49.344;11.120;2023-02-15T00:16:40;14.77;;;9.53;;
18217;SDS011;9234;49.344;11.120;2023-02-15T00:19:11;12.83;;;9.07;;
18217;SDS011;9234;49.344;11.120;2023-02-15T00:21:41;16.53;;;10.30;;
18217;SDS011;9234;49.344;11.120;2023-02-15T00:24:11;17.20;;;10.23;;
18217;SDS011;9234;49.344;11.120;2023-02-15T00:26:43;16.63;;;9.57;;
18217;SDS011;9234;49.344;11.120;2023-02-15T00:29:13;16.10;;;10.17;;
18217;SDS011;9234;49.344;11.120;2023-02-15T00:31:44;13.20;;;8.93;;
18217;SDS011;9234;49.344;11.120;2023-02-15T00:34:14;13.93;;;9.10;;
18217;SDS011;9234;49.344;11.120;2023-02-15T00:36:45;15.63;;;9.60;;
18217;SDS011;9234;49.344;11.120;2023-02-15T00:39:15;15.07;;;8.57;;
18217;SDS011;9234;49.344;11.120;2023-02-15T00:41:45;15.47;;;9.50;;
18217;SDS011;9234;49.344;11.120;2023-02-15T00:44:14;16.70;;;9.30;;
18217;SDS011;9234;49.344;11.120;2023-02-15T00:46:43;18.47;;;10.17;;
18217;SDS011;9234;49.344;11.120;2023-02-15T00:49:11;17.10;;;9.17;;
18217;SDS011;9234;49.344;11.120;2023-02-15T00:51:39;13.17;;;8.53;;
18217;SDS011;9234;49.344;11.120;2023-02-15T00:54:07;15.20;;;9.83;;
18217;SDS011;9234;49.344;11.120;2023-02-15T00:56:37;16.60;;;8.90;;
18217;SDS011;9234;49.344;11.120;2023-02-15T00:59:08;14.90;;;9.00;;
18217;SDS011;9234;49.344;11.120;2023-02-15T01:01:36;17.47;;;9.80;;
18217;SDS011;9234;49.344;11.120;2023-02-15T01:04:04;17.13;;;9.83;;
18217;SDS011;9234;49.344;11.120;2023-02-15T01:06:33;14.77;;;9.73;;
18217;SDS011;9234;49.344;11.120;2023-02-15T01:09:03;17.60;;;8.57;;
18217;SDS011;9234;49.344;11.120;2023-02-15T01:11:32;13.53;;;8.83;;
18217;SDS011;9234;49.344;11.120;2023-02-15T01:14:03;16.33;;;9.67;;
18217;SDS011;9234;49.344;11.120;2023-02-15T01:16:31;14.73;;;9.70;;
18217;SDS011;9234;49.344;11.120;2023-02-15T01:19:00;14.63;;;9.23;;
18217;SDS011;9234;49.344;11.120;2023-02-15T01:21:30;14.73;;;9.17;;
18217;SDS011;9234;49.344;11.120;2023-02-15T01:24:04;15.77;;;10.00;;
18217;SDS011;9234;49.344;11.120;2023-02-15T01:26:38;13.73;;;8.70;;
18217;SDS011;9234;49.344;11.120;2023-02-15T01:29:10;12.93;;;7.90;;
18217;SDS011;9234;49.344;11.120;2023-02-15T01:31:38;15.30;;;7.73;;
18217;SDS011;9234;49.344;11.120;2023-02-15T01:34:09;13.93;;;8.83;;
18217;SDS011;9234;49.344;11.120;2023-02-15T01:36:37;14.07;;;8.43;;
18217;SDS011;9234;49.344;11.120;2023-02-15T01:39:08;12.93;;;8.50;;
18217;SDS011;9234;49.344;11.120;2023-02-15T01:41:36;12.67;;;8.17;;
18217;SDS011;9234;49.344;11.120;2023-02-15T01:47:22;14.07;;;8.53;;
18217;SDS011;9234;49.344;11.120;2023-02-15T01:50:02;13.83;;;8.20;;
18217;SDS011;9234;49.344;11.120;2023-02-15T01:52:37;14.40;;;8.27;;
18217;SDS011;9234;49.344;11.120;2023-02-15T01:55:11;13.97;;;7.43;;
18217;SDS011;9234;49.344;11.120;2023-02-15T01:57:41;11.60;;;8.10;;
18217;SDS011;9234;49.344;11.120;2023-02-15T02:00:13;11.57;;;7.07;;
18217;SDS011;9234;49.344;11.120;2023-02-15T02:02:46;11.63;;;7.33;;
18217;SDS011;9234;49.344;11.120;2023-02-15T02:05:23;13.10;;;8.27;;
18217;SDS011;9234;49.344;11.120;2023-02-15T02:07:53;13.00;;;7.67;;
18217;SDS011;9234;49.344;11.120;2023-02-15T02:10:25;12.97;;;8.60;;
18217;SDS011;9234;49.344;11.120;2023-02-15T02:12:56;15.30;;;8.93;;
18217;SDS011;9234;49.344;11.120;2023-02-15T02:15:33;15.37;;;8.70;;
18217;SDS011;9234;49.344;11.120;2023-02-15T02:18:15;13.80;;;8.80;;
18217;SDS011;9234;49.344;11.120;2023-02-15T02:27:41;13.73;;;7.90;;
18217;SDS011;9234;49.344;11.120;2023-02-15T02:30:32;12.93;;;8.37;;
18217;SDS011;9234;49.344;11.120;2023-02-15T02:33:44;11.23;;;6.90;;
18217;SDS011;9234;49.344;11.120;2023-02-15T02:36:28;11.47;;;7.67;;
18217;SDS011;9234;49.344;11.120;2023-02-15T02:39:12;12.63;;;8.33;;
18217;SDS011;9234;49.344;11.120;2023-02-15T02:41:56;11.77;;;7.37;;
18217;SDS011;9234;49.344;11.120;2023-02-15T02:44:31;10.83;;;7.80;;
18217;SDS011;9234;49.344;11.120;2023-02-15T02:47:11;11.97;;;7.50;;
18217;SDS011;9234;49.344;11.120;2023-02-15T02:49:47;13.40;;;8.17;;
18217;SDS011;9234;49.344;11.120;2023-02-15T02:52:36;11.37;;;7.23;;
18217;SDS011;9234;49.344;11.120;2023-02-15T02:55:09;9.83;;;7.10;;
18217;SDS011;9234;49.344;11.120;2023-02-15T02:57:46;11.00;;;7.03;;
18217;SDS011;9234;49.344;11.120;2023-02-15T03:00:29;11.43;;;7.37;;
18217;SDS011;9234;49.344;11.120;2023-02-15T03:03:04;12.70;;;7.57;;
18217;SDS011;9234;49.344;11.120;2023-02-15T03:05:39;10.77;;;6.97;;
18217;SDS011;9234;49.344;11.120;2023-02-15T03:08:13;11.63;;;7.33;;
18217;SDS011;9234;49.344;11.120;2023-02-15T03:10:48;12.03;;;7.10;;
18217;SDS011;9234;49.344;11.120;2023-02-15T03:13:22;12.93;;;7.10;;
18217;SDS011;9234;49.344;11.120;2023-02-15T03:15:52;9.67;;;6.03;;
18217;SDS011;9234;49.344;11.120;2023-02-15T03:18:41;10.30;;;6.83;;
18217;SDS011;9234;49.344;11.120;2023-02-15T03:21:21;9.77;;;6.70;;
18217;SDS011;9234;49.344;11.120;2023-02-15T03:24:00;9.40;;;6.03;;
18217;SDS011;9234;49.344;11.120;2023-02-15T03:26:35;8.40;;;6.03;;
18217;SDS011;9234;49.344;11.120;2023-02-15T03:29:07;8.00;;;5.97;;
18217;SDS011;9234;49.344;11.120;2023-02-15T03:31:38;9.73;;;6.40;;
18217;SDS011;9234;49.344;11.120;2023-02-15T03:34:12;11.67;;;6.67;;
18217;SDS011;9234;49.344;11.120;2023-02-15T03:36:46;12.17;;;7.50;;
18217;SDS011;9234;49.344;11.120;2023-02-15T03:39:22;13.07;;;8.50;;
18217;SDS011;9234;49.344;11.120;2023-02-15T03:41:59;12.83;;;8.03;;
18217;SDS011;9234;49.344;11.120;2023-02-15T03:44:41;12.20;;;8.27;;
18217;SDS011;9234;49.344;11.120;2023-02-15T03:47:22;14.03;;;8.50;;
18217;SDS011;9234;49.344;11.120;2023-02-15T03:49:57;13.27;;;8.40;;
18217;SDS011;9234;49.344;11.120;2023-02-15T03:52:52;13.10;;;8.30;;
18217;SDS011;9234;49.344;11.120;2023-02-15T03:55:22;13.97;;;8.90;;
18217;SDS011;9234;49.344;11.120;2023-02-15T03:57:51;13.73;;;9.40;;
18217;SDS011;9234;49.344;11.120;2023-02-15T04:00:37;13.73;;;9.00;;
18217;SDS011;9234;49.344;11.120;2023-02-15T04:03:33;14.13;;;8.93;;
18217;SDS011;9234;49.344;11.120;2023-02-15T04:06:07;15.97;;;10.00;;
18217;SDS011;9234;49.344;11.120;2023-02-15T04:08:37;16.70;;;9.20;;
18217;SDS011;9234;49.344;11.120;2023-02-15T04:11:23;16.33;;;9.07;;
18217;SDS011;9234;49.344;11.120;2023-02-15T04:13:51;14.97;;;8.33;;
18217;SDS011;9234;49.344;11.120;2023-02-15T04:16:23;12.83;;;8.30;;
18217;SDS011;9234;49.344;11.120;2023-02-15T04:18:50;14.97;;;9.37;;
18217;SDS011;9234;49.344;11.120;2023-02-15T04:21:36;15.87;;;9.37;;
18217;SDS011;9234;49.344;11.120;2023-02-15T04:24:24;17.20;;;9.97;;
18217;SDS011;9234;49.344;11.120;2023-02-15T04:27:10;18.30;;;10.53;;
18217;SDS011;9234;49.344;11.120;2023-02-15T04:29:38;17.07;;;10.27;;
18217;SDS011;9234;49.344;11.120;2023-02-15T04:32:06;21.33;;;10.73;;
18217;SDS011;9234;49.344;11.120;2023-02-15T04:34:34;20.83;;;11.77;;
18217;SDS011;9234;49.344;11.120;2023-02-15T04:37:03;17.13;;;10.50;;
18217;SDS011;9234;49.344;11.120;2023-02-15T04:39:32;17.83;;;10.53;;
18217;SDS011;9234;49.344;11.120;2023-02-15T04:42:00;18.57;;;10.43;;
18217;SDS011;9234;49.344;11.120;2023-02-15T04:44:29;18.17;;;10.83;;
18217;SDS011;9234;49.344;11.120;2023-02-15T04:46:57;17.37;;;10.00;;
18217;SDS011;9234;49.344;11.120;2023-02-15T04:49:25;18.90;;;10.87;;
18217;SDS011;9234;49.344;11.120;2023-02-15T04:51:53;20.70;;;11.20;;
18217;SDS011;9234;49.344;11.120;2023-02-15T04:54:21;20.93;;;11.23;;
18217;SDS011;9234;49.344;11.120;2023-02-15T04:56:51;19.97;;;11.43;;
18217;SDS011;9234;49.344;11.120;2023-02-15T04:59:19;16.50;;;9.47;;
18217;SDS011;9234;49.344;11.120;2023-02-15T05:01:47;19.73;;;11.37;;
18217;SDS011;9234;49.344;11.120;2023-02-15T05:04:16;17.60;;;10.90;;
18217;SDS011;9234;49.344;11.120;2023-02-15T05:06:44;18.03;;;10.90;;
18217;SDS011;9234;49.344;11.120;2023-02-15T05:09:12;19.80;;;10.83;;
18217;SDS011;9234;49.344;11.120;2023-02-15T05:11:41;18.70;;;10.83;;
18217;SDS011;9234;49.344;11.120;2023-02-15T05:14:11;19.50;;;10.27;;
18217;SDS011;9234;49.344;11.120;2023-02-15T05:16:40;17.77;;;10.50;;
18217;SDS011;9234;49.344;11.120;2023-02-15T05:19:08;17.47;;;10.87;;
18217;SDS011;9234;49.344;11.120;2023-02-15T05:21:36;18.10;;;10.80;;
18217;SDS011;9234;49.344;11.120;2023-02-15T05:24:05;19.07;;;11.87;;
18217;SDS011;9234;49.344;11.120;2023-02-15T05:26:54;20.00;;;10.33;;
18217;SDS011;9234;49.344;11.120;2023-02-15T05:29:41;19.70;;;11.13;;
18217;SDS011;9234;49.344;11.120;2023-02-15T05:32:11;19.70;;;10.37;;
18217;SDS011;9234;49.344;11.120;2023-02-15T05:34:40;16.27;;;10.20;;
18217;SDS011;9234;49.344;11.120;2023-02-15T05:37:09;18.80;;;10.73;;
18217;SDS011;9234;49.344;11.120;2023-02-15T05:39:37;18.77;;;11.33;;
18217;SDS011;9234;49.344;11.120;2023-02-15T05:42:05;15.77;;;11.03;;
18217;SDS011;9234;49.344;11.120;2023-02-15T05:44:33;15.83;;;10.00;;
18217;SDS011;9234;49.344;11.120;2023-02-15T05:47:03;17.50;;;10.00;;
18217;SDS011;9234;49.344;11.120;2023-02-15T05:49:33;16.03;;;10.57;;
18217;SDS011;9234;49.344;11.120;2023-02-15T05:52:02;15.37;;;9.77;;
18217;SDS011;9234;49.344;11.120;2023-02-15T05:54:31;16.43;;;10.17;;
18217;SDS011;9234;49.344;11.120;2023-02-15T05:56:59;18.80;;;10.80;;
18217;SDS011;9234;49.344;11.120;2023-02-15T05:59:27;17.13;;;9.87;;
18217;SDS011;9234;49.344;11.120;2023-02-15T06:01:55;18.33;;;10.30;;
18217;SDS011;9234;49.344;11.120;2023-02-15T06:04:25;15.77;;;9.50;;
18217;SDS011;9234;49.344;11.120;2023-02-15T06:06:53;17.87;;;11.63;;
18217;SDS011;9234;49.344;11.120;2023-02-15T06:09:21;19.03;;;11.23;;
18217;SDS011;9234;49.344;11.120;2023-02-15T06:11:50;18.17;;;10.37;;
18217;SDS011;9234;49.344;11.120;2023-02-15T06:14:18;19.23;;;10.47;;
18217;SDS011;9234;49.344;11.120;2023-02-15T06:16:46;13.50;;;9.03;;
18217;SDS011;9234;49.344;11.120;2023-02-15T06:19:14;16.57;;;10.27;;
18217;SDS011;9234;49.344;11.120;2023-02-15T06:21:44;19.70;;;10.73;;
18217;SDS011;9234;49.344;11.120;2023-02-15T06:24:12;18.10;;;9.93;;
18217;SDS011;9234;49.344;11.120;2023-02-15T06:26:40;17.80;;;10.77;;
18217;SDS011;9234;49.344;11.120;2023-02-15T06:29:09;19.30;;;9.97;;
18217;SDS011;9234;49.344;11.120;2023-02-15T06:31:37;20.23;;;11.07;;
18217;SDS011;9234;49.344;11.120;2023-02-15T06:34:05;15.70;;;9.80;;
18217;SDS011;9234;49.344;11.120;2023-02-15T06:36:34;18.03;;;9.73;;
18217;SDS011;9234;49.344;11.120;2023-02-15T06:39:04;15.83;;;10.20;;
18217;SDS011;9234;49.344;11.120;2023-02-15T06:41:32;19.30;;;11.37;;
18217;SDS011;9234;49.344;11.120;2023-02-15T06:44:01;16.03;;;9.97;;
18217;SDS011;9234;49.344;11.120;2023-02-15T06:46:30;21.40;;;9.97;;
18217;SDS011;9234;49.344;11.120;2023-02-15T06:48:58;16.53;;;9.63;;
18217;SDS011;9234;49.344;11.120;2023-02-15T06:51:27;15.33;;;9.80;;
18217;SDS011;9234;49.344;11.120;2023-02-15T06:53:55;16.27;;;10.13;;
18217;SDS011;9234;49.344;11.120;2023-02-15T06:56:24;17.27;;;9.83;;
18217;SDS011;9234;49.344;11.120;2023-02-15T06:58:53;16.67;;;9.47;;
18217;SDS011;9234;49.344;11.120;2023-02-15T07:01:21;20.50;;;10.47;;
18217;SDS011;9234;49.344;11.120;2023-02-15T07:03:49;20.80;;;11.70;;
18217;SDS011;9234;49.344;11.120;2023-02-15T07:06:17;17.27;;;10.33;;
18217;SDS011;9234;49.344;11.120;2023-02-15T07:08:46;15.63;;;9.97;;
18217;SDS011;9234;49.344;11.120;2023-02-15T07:11:14;19.00;;;10.13;;
18217;SDS011;9234;49.344;11.120;2023-02-15T07:14:00;17.87;;;11.03;;
18217;SDS011;9234;49.344;11.120;2023-02-15T07:16:28;18.33;;;10.67;;
18217;SDS011;9234;49.344;11.120;2023-02-15T07:18:56;20.70;;;10.87;;
18217;SDS011;9234;49.344;11.120;2023-02-15T07:21:25;19.97;;;11.30;;
18217;SDS011;9234;49.344;11.120;2023-02-15T07:23:55;20.50;;;11.50;;
18217;SDS011;9234;49.344;11.120;2023-02-15T07:26:27;19.40;;;10.93;;
18217;SDS011;9234;49.344;11.120;2023-02-15T07:28:55;20.73;;;11.80;;
18217;SDS011;9234;49.344;11.120;2023-02-15T07:31:25;21.17;;;12.10;;
18217;SDS011;9234;49.344;11.120;2023-02-15T07:33:53;20.40;;;12.13;;
18217;SDS011;9234;49.344;11.120;2023-02-15T07:36:21;19.77;;;11.07;;
18217;SDS011;9234;49.344;11.120;2023-02-15T07:38:49;20.87;;;12.47;;
18217;SDS011;9234;49.344;11.120;2023-02-15T07:41:17;19.07;;;11.17;;
18217;SDS011;9234;49.344;11.120;2023-02-15T07:43:45;23.67;;;12.07;;
18217;SDS011;9234;49.344;11.120;2023-02-15T07:46:15;19.53;;;10.97;;
18217;SDS011;9234;49.344;11.120;2023-02-15T07:48:45;22.63;;;12.07;;
18217;SDS011;9234;49.344;11.120;2023-02-15T07:51:15;18.00;;;11.30;;
18217;SDS011;9234;49.344;11.120;2023-02-15T07:53:43;19.30;;;11.13;;
18217;SDS011;9234;49.344;11.120;2023-02-15T07:56:12;20.90;;;11.87;;
18217;SDS011;9234;49.344;11.120;2023-02-15T07:58:41;18.27;;;10.73;;
18217;SDS011;9234;49.344;11.120;2023-02-15T08:01:20;16.50;;;10.50;;
18217;SDS011;9234;49.344;11.120;2023-02-15T08:03:52;16.27;;;9.80;;
18217;SDS011;9234;49.344;11.120;2023-02-15T08:06:22;17.13;;;10.03;;
18217;SDS011;9234;49.344;11.120;2023-02-15T08:08:53;17.50;;;10.50;;
18217;SDS011;9234;49.344;11.120;2023-02-15T08:11:22;16.17;;;10.30;;
18217;SDS011;9234;49.344;11.120;2023-02-15T08:13:59;18.50;;;10.37;;
18217;SDS011;9234;49.344;11.120;2023-02-15T08:16:31;14.97;;;9.00;;
18217;SDS011;9234;49.344;11.120;2023-02-15T08:19:04;15.93;;;9.90;;
18217;SDS011;9234;49.344;11.120;2023-02-15T08:21:35;14.23;;;8.33;;
18217;SDS011;9234;49.344;11.120;2023-02-15T08:24:06;17.73;;;10.07;;
18217;SDS011;9234;49.344;11.120;2023-02-15T08:26:36;15.83;;;9.73;;
18217;SDS011;9234;49.344;11.120;2023-02-15T08:29:08;17.03;;;9.87;;
18217;SDS011;9234;49.344;11.120;2023-02-15T08:31:36;18.10;;;9.77;;
18217;SDS011;9234;49.344;11.120;2023-02-15T08:34:09;15.20;;;9.60;;
18217;SDS011;9234;49.344;11.120;2023-02-15T08:36:40;17.00;;;10.07;;
18217;SDS011;9234;49.344;11.120;2023-02-15T08:39:11;15.53;;;9.43;;
18217;SDS011;9234;49.344;11.120;2023-02-15T08:41:42;18.77;;;10.43;;
18217;SDS011;9234;49.344;11.120;2023-02-15T08:44:12;19.43;;;11.47;;
18217;SDS011;9234;49.344;11.120;2023-02-15T08:46:44;15.47;;;10.57;;
18217;SDS011;9234;49.344;11.120;2023-02-15T08:49:16;17.47;;;10.27;;
18217;SDS011;9234;49.344;11.120;2023-02-15T08:51:47;17.40;;;9.93;;
18217;SDS011;9234;49.344;11.120;2023-02-15T08:54:17;15.80;;;9.87;;
18217;SDS011;9234;49.344;11.120;2023-02-15T08:56:47;18.47;;;10.73;;
18217;SDS011;9234;49.344;11.120;2023-02-15T08:59:16;17.60;;;10.67;;
18217;SDS011;9234;49.344;11.120;2023-02-15T09:01:48;17.23;;;11.00;;
18217;SDS011;9234;49.344;11.120;2023-02-15T09:04:20;23.90;;;13.83;;
18217;SDS011;9234;49.344;11.120;2023-02-15T09:06:49;18.37;;;11.20;;
18217;SDS011;9234;49.344;11.120;2023-02-15T09:09:18;16.07;;;10.47;;
18217;SDS011;9234;49.344;11.120;2023-02-15T09:11:47;17.63;;;10.63;;
18217;SDS011;9234;49.344;11.120;2023-02-15T09:14:24;20.83;;;12.13;;
18217;SDS011;9234;49.344;11.120;2023-02-15T09:16:53;18.10;;;11.67;;
18217;SDS011;9234;49.344;11.120;2023-02-15T09:19:24;16.73;;;10.67;;
18217;SDS011;9234;49.344;11.120;2023-02-15T09:21:52;15.80;;;9.93;;
18217;SDS011;9234;49.344;11.120;2023-02-15T09:24:21;19.23;;;11.43;;
18217;SDS011;9234;49.344;11.120;2023-02-15T09:26:49;16.33;;;10.07;;
18217;SDS011;9234;49.344;11.120;2023-02-15T09:29:18;17.60;;;11.53;;
18217;SDS011;9234;49.344;11.120;2023-02-15T09:31:47;16.67;;;10.80;;
18217;SDS011;9234;49.344;11.120;2023-02-15T09:34:18;15.37;;;9.87;;
18217;SDS011;9234;49.344;11.120;2023-02-15T09:36:50;16.80;;;11.23;;
18217;SDS011;9234;49.344;11.120;2023-02-15T09:39:20;17.30;;;10.67;;
18217;SDS011;9234;49.344;11.120;2023-02-15T09:42:03;17.33;;;10.77;;
18217;SDS011;9234;49.344;11.120;2023-02-15T09:44:57;19.37;;;11.43;;
18217;SDS011;9234;49.344;11.120;2023-02-15T09:47:51;17.13;;;11.00;;
18217;SDS011;9234;49.344;11.120;2023-02-15T09:50:50;17.80;;;11.57;;
18217;SDS011;9234;49.344;11.120;2023-02-15T09:53:38;19.17;;;11.23;;
18217;SDS011;9234;49.344;11.120;2023-02-15T09:56:29;19.60;;;12.33;;
18217;SDS011;9234;49.344;11.120;2023-02-15T09:59:07;19.00;;;12.27;;
18217;SDS011;9234;49.344;11.120;2023-02-15T10:01:48;17.87;;;12.33;;
18217;SDS011;9234;49.344;11.120;2023-02-15T10:04:34;18.27;;;11.87;;
18217;SDS011;9234;49.344;11.120;2023-02-15T10:07:27;19.33;;;11.73;;
18217;SDS011;9234;49.344;11.120;2023-02-15T10:10:24;20.17;;;11.77;;
18217;SDS011;9234;49.344;11.120;2023-02-15T10:13:12;19.87;;;14.50;;
18217;SDS011;9234;49.344;11.120;2023-02-15T10:16:03;21.07;;;14.20;;
18217;SDS011;9234;49.344;11.120;2023-02-15T10:18:50;28.43;;;18.07;;
18217;SDS011;9234;49.344;11.120;2023-02-15T10:21:32;19.57;;;13.37;;
18217;SDS011;9234;49.344;11.120;2023-02-15T10:24:22;22.93;;;14.90;;
18217;SDS011;9234;49.344;11.120;2023-02-15T10:27:17;17.77;;;11.20;;
18217;SDS011;9234;49.344;11.120;2023-02-15T10:29:50;18.50;;;12.53;;
18217;SDS011;9234;49.344;11.120;2023-02-15T10:32:36;17.63;;;11.97;;
18217;SDS011;9234;49.344;11.120;2023-02-15T10:35:22;16.37;;;11.13;;
18217;SDS011;9234;49.344;11.120;2023-02-15T10:38:15;20.37;;;12.50;;
18217;SDS011;9234;49.344;11.120;2023-02-15T10:41:00;19.57;;;13.80;;
18217;SDS011;9234;49.344;11.120;2023-02-15T10:43:48;22.97;;;17.73;;
18217;SDS011;9234;49.344;11.120;2023-02-15T10:46:51;24.93;;;16.53;;
18217;SDS011;9234;49.344;11.120;2023-02-15T10:49:55;23.03;;;14.90;;
18217;SDS011;9234;49.344;11.120;2023-02-15T10:52:43;27.70;;;16.00;;
18217;SDS011;9234;49.344;11.120;2023-02-15T10:55:30;19.97;;;13.13;;
18217;SDS011;9234;49.344;11.120;2023-02-15T10:58:16;22.63;;;15.17;;
18217;SDS011;9234;49.344;11.120;2023-02-15T11:01:02;24.10;;;15.43;;
18217;SDS011;9234;49.344;11.120;2023-02-15T11:04:05;23.13;;;14.67;;
18217;SDS011;9234;49.344;11.120;2023-02-15T11:07:02;22.17;;;14.03;;
18217;SDS011;9234;49.344;11.120;2023-02-15T11:09:38;21.43;;;14.43;;
18217;SDS011;9234;49.344;11.120;2023-02-15T11:12:15;26.90;;;16.97;;
18217;SDS011;9234;49.344;11.120;2023-02-15T11:14:49;23.83;;;17.03;;
18217;SDS011;9234;49.344;11.120;2023-02-15T11:17:28;19.87;;;13.13;;
18217;SDS011;9234;49.344;11.120;2023-02-15T11:20:08;22.20;;;13.87;;
18217;SDS011;9234;49.344;11.120;2023-02-15T11:22:46;21.20;;;15.23;;
18217;SDS011;9234;49.344;11.120;2023-02-15T11:25:19;22.07;;;16.03;;
18217;SDS011;9234;49.344;11.120;2023-02-15T11:27:53;18.63;;;14.37;;
18217;SDS011;9234;49.344;11.120;2023-02-15T11:30:24;19.77;;;14.00;;
18217;SDS011;9234;49.344;11.120;2023-02-15T11:32:59;23.20;;;14.20;;
18217;SDS011;9234;49.344;11.120;2023-02-15T11:35:33;21.83;;;14.33;;
18217;SDS011;9234;49.344;11.120;2023-02-15T11:38:16;21.03;;;14.10;;
18217;SDS011;9234;49.344;11.120;2023-02-15T11:40:49;22.20;;;14.93;;
18217;SDS011;9234;49.344;11.120;2023-02-15T11:43:23;21.80;;;15.17;;
18217;SDS011;9234;49.344;11.120;2023-02-15T11:46:00;23.33;;;15.83;;
18217;SDS011;9234;49.344;11.120;2023-02-15T11:48:30;23.30;;;16.10;;
18217;SDS011;9234;49.344;11.120;2023-02-15T11:51:00;22.87;;;14.50;;
18217;SDS011;9234;49.344;11.120;2023-02-15T11:53:32;24.30;;;17.23;;
18217;SDS011;9234;49.344;11.120;2023-02-15T11:56:03;22.23;;;15.73;;
18217;SDS011;9234;49.344;11.120;2023-02-15T11:58:40;21.00;;;14.30;;
18217;SDS011;9234;49.344;11.120;2023-02-15T12:01:15;24.23;;;16.40;;
18217;SDS011;9234;49.344;11.120;2023-02-15T12:03:52;21.47;;;14.47;;
18217;SDS011;9234;49.344;11.120;2023-02-15T12:06:24;23.80;;;16.53;;
18217;SDS011;9234;49.344;11.120;2023-02-15T12:08:57;23.50;;;16.97;;
18217;SDS011;9234;49.344;11.120;2023-02-15T12:11:35;21.80;;;15.50;;
18217;SDS011;9234;49.344;11.120;2023-02-15T12:14:07;21.77;;;16.20;;
18217;SDS011;9234;49.344;11.120;2023-02-15T12:16:41;25.47;;;17.83;;
18217;SDS011;9234;49.344;11.120;2023-02-15T12:19:26;23.53;;;17.10;;
18217;SDS011;9234;49.344;11.120;2023-02-15T12:21:59;23.10;;;16.60;;
18217;SDS011;9234;49.344;11.120;2023-02-15T12:24:32;23.90;;;16.40;;
18217;SDS011;9234;49.344;11.120;2023-02-15T12:27:05;25.20;;;15.70;;
18217;SDS011;9234;49.344;11.120;2023-02-15T12:29:46;24.07;;;16.70;;
18217;SDS011;9234;49.344;11.120;2023-02-15T12:32:19;23.97;;;16.93;;
18217;SDS011;9234;49.344;11.120;2023-02-15T12:34:54;21.90;;;16.90;;
18217;SDS011;9234;49.344;11.120;2023-02-15T12:37:29;23.30;;;16.23;;
18217;SDS011;9234;49.344;11.120;2023-02-15T12:40:01;21.42;;;16.00;;
18217;SDS011;9234;49.344;11.120;2023-02-15T12:42:47;23.83;;;18.17;;
18217;SDS011;9234;49.344;11.120;2023-02-15T12:45:20;23.67;;;17.80;;
18217;SDS011;9234;49.344;11.120;2023-02-15T12:48:07;23.63;;;16.63;;
18217;SDS011;9234;49.344;11.120;2023-02-15T12:50:44;25.17;;;18.25;;
18217;SDS011;9234;49.344;11.120;2023-02-15T12:53:20;28.48;;;19.67;;
18217;SDS011;9234;49.344;11.120;2023-02-15T12:55:57;23.95;;;17.70;;
18217;SDS011;9234;49.344;11.120;2023-02-15T12:58:31;21.35;;;17.00;;
18217;SDS011;9234;49.344;11.120;2023-02-15T13:01:02;21.92;;;17.42;;
18217;SDS011;9234;49.344;11.120;2023-02-15T13:03:49;23.30;;;17.92;;
18217;SDS011;9234;49.344;11.120;2023-02-15T13:06:26;23.17;;;16.65;;
18217;SDS011;9234;49.344;11.120;2023-02-15T13:08:58;22.08;;;17.17;;
18217;SDS011;9234;49.344;11.120;2023-02-15T13:11:41;21.02;;;15.40;;
18217;SDS011;9234;49.344;11.120;2023-02-15T13:14:16;22.33;;;16.38;;
18217;SDS011;9234;49.344;11.120;2023-02-15T13:16:47;19.17;;;14.88;;
18217;SDS011;9234;49.344;11.120;2023-02-15T13:19:19;19.75;;;16.02;;
18217;SDS011;9234;49.344;11.120;2023-02-15T13:21:58;19.85;;;15.27;;
18217;SDS011;9234;49.344;11.120;2023-02-15T13:24:33;21.70;;;16.15;;
18217;SDS011;9234;49.344;11.120;2023-02-15T13:27:07;19.52;;;16.17;;
18217;SDS011;9234;49.344;11.120;2023-02-15T13:29:43;20.65;;;15.02;;
18217;SDS011;9234;49.344;11.120;2023-02-15T13:32:21;18.63;;;15.43;;
18217;SDS011;9234;49.344;11.120;2023-02-15T13:34:56;20.08;;;15.60;;
18217;SDS011;9234;49.344;11.120;2023-02-15T13:37:34;17.77;;;15.02;;
18217;SDS011;9234;49.344;11.120;2023-02-15T13:40:22;21.77;;;14.38;;
18217;SDS011;9234;49.344;11.120;2023-02-15T13:42:59;19.08;;;14.95;;
18217;SDS011;9234;49.344;11.120;2023-02-15T13:45:45;17.52;;;14.18;;
18217;SDS011;9234;49.344;11.120;2023-02-15T13:48:35;15.82;;;13.70;;
18217;SDS011;9234;49.344;11.120;2023-02-15T13:51:19;19.05;;;15.23;;
18217;SDS011;9234;49.344;11.120;2023-02-15T13:54:00;18.92;;;15.82;;
18217;SDS011;9234;49.344;11.120;2023-02-15T13:57:01;20.02;;;15.00;;
18217;SDS011;9234;49.344;11.120;2023-02-15T13:59:54;17.85;;;14.52;;
18217;SDS011;9234;49.344;11.120;2023-02-15T14:03:02;17.63;;;14.45;;
18217;SDS011;9234;49.344;11.120;2023-02-15T14:09:11;20.33;;;16.77;;
18217;SDS011;9234;49.344;11.120;2023-02-15T14:11:58;23.23;;;19.00;;
18217;SDS011;9234;49.344;11.120;2023-02-15T14:14:52;21.88;;;17.38;;
18217;SDS011;9234;49.344;11.120;2023-02-15T14:17:55;23.75;;;19.42;;
18217;SDS011;9234;49.344;11.120;2023-02-15T14:20:42;21.90;;;16.98;;
18217;SDS011;9234;49.344;11.120;2023-02-15T14:23:28;23.73;;;17.90;;
18217;SDS011;9234;49.344;11.120;2023-02-15T14:26:14;22.75;;;18.38;;
18217;SDS011;9234;49.344;11.120;2023-02-15T14:28:54;25.67;;;19.17;;
18217;SDS011;9234;49.344;11.120;2023-02-15T14:31:43;21.75;;;16.70;;
18217;SDS011;9234;49.344;11.120;2023-02-15T14:34:18;24.20;;;18.02;;
18217;SDS011;9234;49.344;11.120;2023-02-15T14:36:51;24.52;;;19.13;;
18217;SDS011;9234;49.344;11.120;2023-02-15T14:39:24;26.88;;;19.38;;
18217;SDS011;9234;49.344;11.120;2023-02-15T14:42:23;24.38;;;17.67;;
18217;SDS011;9234;49.344;11.120;2023-02-15T14:45:05;28.42;;;18.98;;
18217;SDS011;9234;49.344;11.120;2023-02-15T14:47:48;21.35;;;17.20;;
18217;SDS011;9234;49.344;11.120;2023-02-15T14:50:37;25.58;;;18.42;;
18217;SDS011;9234;49.344;11.120;2023-02-15T14:56:16;20.73;;;16.50;;
18217;SDS011;9234;49.344;11.120;2023-02-15T14:58:56;24.15;;;18.45;;
18217;SDS011;9234;49.344;11.120;2023-02-15T15:01:29;24.60;;;17.80;;
18217;SDS011;9234;49.344;11.120;2023-02-15T15:04:01;23.40;;;19.42;;
18217;SDS011;9234;49.344;11.120;2023-02-15T15:06:35;22.98;;;18.15;;
18217;SDS011;9234;49.344;11.120;2023-02-15T15:09:10;24.20;;;19.35;;
18217;SDS011;9234;49.344;11.120;2023-02-15T15:11:47;27.80;;;20.58;;
18217;SDS011;9234;49.344;11.120;2023-02-15T15:14:38;27.10;;;19.65;;
18217;SDS011;9234;49.344;11.120;2023-02-15T15:17:10;24.70;;;19.17;;
18217;SDS011;9234;49.344;11.120;2023-02-15T15:22:26;28.02;;;19.67;;
18217;SDS011;9234;49.344;11.120;2023-02-15T15:24:57;24.17;;;17.63;;
18217;SDS011;9234;49.344;11.120;2023-02-15T15:27:40;25.05;;;18.30;;
18217;SDS011;9234;49.344;11.120;2023-02-15T15:37:19;24.80;;;17.83;;
18217;SDS011;9234;49.344;11.120;2023-02-15T15:47:00;25.10;;;17.90;;